createdAt,value
2023-05-18T00:00:01.895Z,12.95
2023-05-18T00:02:30.638Z,9.45
2023-05-18T00:05:03.395Z,10.02
2023-05-18T00:10:04.197Z,13.40
2023-05-18T00:12:32.438Z,9.77
2023-05-18T00:15:00.775Z,10.88
2023-05-18T00:17:29.434Z,10.40
2023-05-18T00:20:00.458Z,7.40
2023-05-18T00:22:29.135Z,5.88
2023-05-18T00:24:58.700Z,6.10
2023-05-18T00:27:27.489Z,6.22
2023-05-18T00:29:55.700Z,10.65
2023-05-18T00:32:23.878Z,9.75
2023-05-18T00:34:52.330Z,9.23
2023-05-18T00:37:21.059Z,10.57
2023-05-18T00:39:49.216Z,5.97
2023-05-18T00:42:17.444Z,4.55
2023-05-18T00:44:46.106Z,7.85
2023-05-18T00:47:15.286Z,8.27
2023-05-18T00:49:43.945Z,5.35
2023-05-18T00:52:12.591Z,11.55
2023-05-18T00:54:41.273Z,9.93
2023-05-18T00:57:09.798Z,10.00
2023-05-18T00:59:38.918Z,10.38
2023-05-18T01:02:08.336Z,5.57
2023-05-18T01:04:39.402Z,15.63
2023-05-18T01:07:07.850Z,6.00
2023-05-18T01:09:36.781Z,8.48
2023-05-18T01:12:27.641Z,6.22
2023-05-18T01:15:06.408Z,10.75
2023-05-18T01:17:56.655Z,13.20
2023-05-18T01:20:40.966Z,12.90
2023-05-18T01:23:27.303Z,7.32
2023-05-18T01:25:55.570Z,7.78
2023-05-18T01:28:33.604Z,14.90
2023-05-18T01:31:02.670Z,9.60
2023-05-18T01:33:31.275Z,11.65
2023-05-18T01:35:59.931Z,10.05
2023-05-18T01:38:29.819Z,16.58
2023-05-18T01:41:15.417Z,14.63
2023-05-18T01:43:51.928Z,13.77
2023-05-18T01:46:43.629Z,15.88
2023-05-18T01:49:37.912Z,20.13
2023-05-18T01:52:13.483Z,11.65
2023-05-18T01:54:46.194Z,14.57
2023-05-18T01:57:15.639Z,16.63
2023-05-18T01:59:44.994Z,13.05
2023-05-18T02:02:14.115Z,15.27
2023-05-18T02:04:42.460Z,18.30
2023-05-18T02:07:11.212Z,15.00
2023-05-18T02:09:40.159Z,17.45
2023-05-18T02:12:08.868Z,19.40
2023-05-18T02:14:37.553Z,11.57
2023-05-18T02:17:08.563Z,14.32
2023-05-18T02:19:39.789Z,12.65
2023-05-18T02:22:09.625Z,17.90
2023-05-18T02:24:38.210Z,18.70
2023-05-18T02:27:08.187Z,14.73
2023-05-18T02:29:36.987Z,17.38
2023-05-18T02:32:06.242Z,14.63
2023-05-18T02:34:37.182Z,14.07
2023-05-18T02:37:06.687Z,18.65
2023-05-18T02:39:35.297Z,16.75
2023-05-18T02:42:04.099Z,15.25
2023-05-18T02:44:32.930Z,14.07
2023-05-18T02:47:01.773Z,19.60
2023-05-18T02:49:30.495Z,15.13
2023-05-18T02:51:59.168Z,14.73
2023-05-18T02:54:27.792Z,13.75
2023-05-18T02:56:58.270Z,15.85
2023-05-18T02:59:26.956Z,18.02
2023-05-18T03:01:55.638Z,23.15
2023-05-18T03:04:27.680Z,20.58
2023-05-18T03:06:58.644Z,19.40
2023-05-18T03:09:27.922Z,9.50
2023-05-18T03:11:57.431Z,10.40
2023-05-18T03:14:26.115Z,7.47
2023-05-18T03:16:55.384Z,6.65
2023-05-18T03:19:24.142Z,12.45
2023-05-18T03:21:52.860Z,6.38
2023-05-18T03:24:21.819Z,6.53
2023-05-18T03:26:50.443Z,8.18
2023-05-18T03:29:20.046Z,3.85
2023-05-18T03:31:49.373Z,5.53
2023-05-18T03:34:18.108Z,4.68
2023-05-18T03:36:48.764Z,5.25
2023-05-18T03:39:18.407Z,8.02
2023-05-18T03:41:47.410Z,3.80
2023-05-18T03:44:16.178Z,4.20
2023-05-18T03:46:44.939Z,6.38
2023-05-18T03:49:13.943Z,9.68
2023-05-18T03:51:42.621Z,5.95
2023-05-18T03:54:11.259Z,6.32
2023-05-18T03:56:39.395Z,6.28
2023-05-18T03:59:08.065Z,16.33
2023-05-18T04:01:36.559Z,6.45
2023-05-18T04:04:05.121Z,6.13
2023-05-18T04:06:33.521Z,6.53
2023-05-18T04:09:05.998Z,6.63
2023-05-18T04:11:34.540Z,7.95
2023-05-18T04:14:03.153Z,8.25
2023-05-18T04:16:32.538Z,7.18
2023-05-18T04:19:01.872Z,6.80
2023-05-18T04:21:36.615Z,10.07
2023-05-18T04:24:07.051Z,9.65
2023-05-18T04:26:37.634Z,9.85
2023-05-18T04:29:09.088Z,9.77
2023-05-18T04:31:38.661Z,7.20
2023-05-18T04:34:08.375Z,10.63
2023-05-18T04:36:37.186Z,7.05
2023-05-18T04:39:09.097Z,8.15
2023-05-18T04:41:37.748Z,12.95
2023-05-18T04:44:06.425Z,8.43
2023-05-18T04:46:35.956Z,11.80
2023-05-18T04:49:05.032Z,7.30
2023-05-18T04:51:35.923Z,12.30
2023-05-18T04:54:04.765Z,12.82
2023-05-18T04:56:33.408Z,10.88
2023-05-18T04:59:01.715Z,9.88
2023-05-18T05:01:30.583Z,7.18
2023-05-18T05:03:59.829Z,11.18
2023-05-18T05:06:28.684Z,13.40
2023-05-18T05:08:57.488Z,8.23
2023-05-18T05:11:26.157Z,11.40
2023-05-18T05:13:55.118Z,10.05
2023-05-18T05:16:23.826Z,9.15
2023-05-18T05:18:52.622Z,15.52
2023-05-18T05:21:20.990Z,11.43
2023-05-18T05:23:50.009Z,9.80
2023-05-18T05:26:18.904Z,9.00
2023-05-18T05:28:47.214Z,6.70
2023-05-18T05:31:16.059Z,10.07
2023-05-18T05:33:45.903Z,7.95
2023-05-18T05:36:14.554Z,9.13
2023-05-18T05:38:43.759Z,22.30
2023-05-18T05:41:12.582Z,10.38
2023-05-18T05:43:41.271Z,9.80
2023-05-18T05:46:09.931Z,7.88
2023-05-18T05:48:37.956Z,16.38
2023-05-18T05:51:06.643Z,8.98
2023-05-18T05:53:35.333Z,10.32
2023-05-18T05:56:04.978Z,9.63
2023-05-18T05:58:33.215Z,7.95
2023-05-18T06:01:05.324Z,9.77
2023-05-18T06:03:35.959Z,11.07
2023-05-18T06:06:04.940Z,8.52
2023-05-18T06:08:36.311Z,9.57
2023-05-18T06:11:05.704Z,11.65
2023-05-18T06:13:34.489Z,9.95
2023-05-18T06:16:03.242Z,9.25
2023-05-18T06:18:32.176Z,6.85
2023-05-18T06:21:00.865Z,6.13
2023-05-18T06:23:29.512Z,7.85
2023-05-18T06:25:57.822Z,12.95
2023-05-18T06:28:26.441Z,7.82
2023-05-18T06:30:55.318Z,11.00
2023-05-18T06:33:24.958Z,8.80
2023-05-18T06:35:53.662Z,9.70
2023-05-18T06:38:22.372Z,10.52
2023-05-18T06:40:51.040Z,9.98
2023-05-18T06:43:19.365Z,8.05
2023-05-18T06:45:48.542Z,14.52
2023-05-18T06:48:17.133Z,9.02
2023-05-18T06:50:45.794Z,10.95
2023-05-18T06:53:14.943Z,8.65
2023-05-18T06:55:43.706Z,8.48
2023-05-18T06:58:12.363Z,10.52
2023-05-18T07:00:40.983Z,10.10
2023-05-18T07:03:09.210Z,9.20
2023-05-18T07:05:39.348Z,8.50
2023-05-18T07:08:08.282Z,7.88
2023-05-18T07:10:39.228Z,16.77
2023-05-18T07:13:07.883Z,8.60
2023-05-18T07:15:36.588Z,11.15
2023-05-18T07:18:05.375Z,10.77
2023-05-18T07:20:33.700Z,12.98
2023-05-18T07:23:02.806Z,12.80
2023-05-18T07:25:31.820Z,15.65
2023-05-18T07:28:00.665Z,12.48
2023-05-18T07:30:29.359Z,8.15
2023-05-18T07:32:59.060Z,11.45
2023-05-18T07:35:28.515Z,12.80
2023-05-18T07:37:57.278Z,8.15
2023-05-18T07:40:25.628Z,12.82
2023-05-18T07:42:54.313Z,13.45
2023-05-18T07:45:23.143Z,9.90
2023-05-18T07:47:52.118Z,12.82
2023-05-18T07:50:20.735Z,10.60
2023-05-18T07:52:49.522Z,20.73
2023-05-18T07:55:19.000Z,11.68
2023-05-18T07:57:47.662Z,13.23
2023-05-18T08:00:18.161Z,12.65
2023-05-18T08:02:47.669Z,15.20
2023-05-18T08:05:16.543Z,13.50
2023-05-18T08:07:45.140Z,12.02
2023-05-18T08:10:13.813Z,11.57
2023-05-18T08:12:42.538Z,14.02
2023-05-18T08:15:12.145Z,8.52
2023-05-18T08:17:41.101Z,12.75
2023-05-18T08:20:11.719Z,13.63
2023-05-18T08:22:41.335Z,13.43
2023-05-18T08:25:11.668Z,13.15
2023-05-18T08:27:39.646Z,17.30
2023-05-18T08:30:08.884Z,13.98
2023-05-18T08:32:38.579Z,14.60
2023-05-18T08:35:07.283Z,9.15
2023-05-18T08:37:38.828Z,14.95
2023-05-18T08:40:12.954Z,19.05
2023-05-18T08:42:50.510Z,16.25
2023-05-18T08:45:53.830Z,18.98
2023-05-18T08:48:27.207Z,18.63
2023-05-18T08:50:59.727Z,25.77
2023-05-18T08:53:29.028Z,14.35
2023-05-18T08:55:59.695Z,20.40
2023-05-18T08:58:36.962Z,19.65
2023-05-18T09:01:07.156Z,21.08
2023-05-18T09:03:36.423Z,21.38
2023-05-18T09:06:06.149Z,15.55
2023-05-18T09:08:35.986Z,21.73
2023-05-18T09:11:04.773Z,16.08
2023-05-18T09:13:33.441Z,14.73
2023-05-18T09:16:01.892Z,15.73
2023-05-18T09:18:30.630Z,15.93
2023-05-18T09:20:59.339Z,14.25
2023-05-18T09:23:28.047Z,17.98
2023-05-18T09:25:57.308Z,13.25
2023-05-18T09:28:35.428Z,15.35
2023-05-18T09:31:05.374Z,12.50
2023-05-18T09:33:41.760Z,12.32
2023-05-18T09:36:11.749Z,16.42
2023-05-18T09:38:47.839Z,12.52
2023-05-18T09:41:18.554Z,12.43
2023-05-18T09:43:50.127Z,13.60
2023-05-18T09:46:19.748Z,17.27
2023-05-18T09:48:52.543Z,15.38
2023-05-18T09:51:23.420Z,14.65
2023-05-18T09:54:00.204Z,17.38
2023-05-18T09:56:29.113Z,14.35
2023-05-18T09:58:57.776Z,16.52
2023-05-18T10:01:26.524Z,15.23
2023-05-18T10:04:03.969Z,13.93
2023-05-18T10:06:33.394Z,16.83
2023-05-18T10:09:06.091Z,15.90
2023-05-18T10:11:35.277Z,13.88
2023-05-18T10:14:04.889Z,14.50
2023-05-18T10:16:34.435Z,12.55
2023-05-18T10:19:05.219Z,18.77
2023-05-18T10:21:36.369Z,18.85
2023-05-18T10:24:06.798Z,16.33
2023-05-18T10:26:40.501Z,16.73
2023-05-18T10:29:09.086Z,15.18
2023-05-18T10:31:40.649Z,11.85
2023-05-18T10:34:11.888Z,12.98
2023-05-18T10:36:41.053Z,17.25
2023-05-18T10:39:11.766Z,15.32
2023-05-18T10:41:43.989Z,18.25
2023-05-18T10:44:12.935Z,18.52
2023-05-18T10:46:43.073Z,17.83
2023-05-18T10:49:16.342Z,18.98
2023-05-18T10:51:48.838Z,13.13
2023-05-18T10:54:17.468Z,14.60
2023-05-18T10:56:49.619Z,13.48
2023-05-18T10:59:20.316Z,15.30
2023-05-18T11:01:51.320Z,15.45
2023-05-18T11:04:31.052Z,17.10
2023-05-18T11:07:03.570Z,16.48
2023-05-18T11:09:33.492Z,20.23
2023-05-18T11:12:02.346Z,23.67
2023-05-18T11:14:34.204Z,22.30
2023-05-18T11:17:19.042Z,20.48
2023-05-18T11:20:07.145Z,19.08
2023-05-18T11:22:44.034Z,16.90
2023-05-18T11:25:37.435Z,21.83
2023-05-18T11:28:08.960Z,16.30
2023-05-18T11:30:42.005Z,21.10
2023-05-18T11:33:11.091Z,24.10
2023-05-18T11:36:10.591Z,20.50
2023-05-18T11:39:07.492Z,26.25
2023-05-18T11:41:40.323Z,25.25
2023-05-18T11:44:17.805Z,27.30
2023-05-18T11:47:11.699Z,27.67
2023-05-18T11:52:29.970Z,26.60
2023-05-18T11:55:00.522Z,31.58
2023-05-18T11:57:44.689Z,28.70
2023-05-18T12:00:14.140Z,28.17
2023-05-18T12:02:48.293Z,24.85
2023-05-18T12:05:17.489Z,26.40
2023-05-18T12:07:53.456Z,29.42
2023-05-18T12:10:23.069Z,27.60
2023-05-18T12:12:54.634Z,28.55
2023-05-18T12:15:24.798Z,30.92
2023-05-18T12:17:55.009Z,28.20
2023-05-18T12:20:29.673Z,27.65
2023-05-18T12:22:58.952Z,26.15
2023-05-18T12:25:29.725Z,24.90
2023-05-18T12:27:58.615Z,29.42
2023-05-18T12:30:47.086Z,25.95
2023-05-18T12:33:15.753Z,27.13
2023-05-18T12:35:44.181Z,25.25
2023-05-18T12:38:13.164Z,29.50
2023-05-18T12:40:51.705Z,22.80
2023-05-18T12:43:20.494Z,28.45
2023-05-18T12:45:48.869Z,27.17
2023-05-18T12:48:17.371Z,28.35
2023-05-18T12:50:50.286Z,25.63
2023-05-18T12:53:19.893Z,26.85
2023-05-18T12:56:05.567Z,26.23
2023-05-18T12:58:33.986Z,27.77
2023-05-18T13:01:12.743Z,25.40
2023-05-18T13:03:42.366Z,25.55
2023-05-18T13:06:11.176Z,28.48
2023-05-18T13:08:39.973Z,25.55
2023-05-18T13:11:14.458Z,26.92
2023-05-18T13:14:13.806Z,28.63
2023-05-18T13:16:47.271Z,35.95
2023-05-18T13:19:21.844Z,27.63
2023-05-18T13:21:57.518Z,34.05
2023-05-18T13:24:26.266Z,25.13
2023-05-18T13:26:54.955Z,28.83
2023-05-18T13:29:23.597Z,22.95
2023-05-18T13:31:52.283Z,22.30
2023-05-18T13:34:20.542Z,23.92
2023-05-18T13:36:49.186Z,34.80
2023-05-18T13:39:19.093Z,23.58
2023-05-18T13:41:47.721Z,27.15
2023-05-18T13:44:17.439Z,24.38
2023-05-18T13:46:45.739Z,23.88
2023-05-18T13:49:14.274Z,25.13
2023-05-18T13:51:42.536Z,26.80
2023-05-18T13:54:11.323Z,24.50
2023-05-18T13:56:40.008Z,27.05
2023-05-18T13:59:09.277Z,30.48
2023-05-18T14:01:37.791Z,26.45
2023-05-18T14:04:06.207Z,27.63
2023-05-18T14:06:34.654Z,21.75
2023-05-18T14:09:03.272Z,26.23
2023-05-18T14:11:35.525Z,27.00
2023-05-18T14:14:04.492Z,32.40
2023-05-18T14:16:33.330Z,25.80
2023-05-18T14:19:02.118Z,30.77
2023-05-18T14:21:30.830Z,27.58
2023-05-18T14:23:59.026Z,32.55
2023-05-18T14:26:28.070Z,27.40
2023-05-18T14:28:56.785Z,24.77
2023-05-18T14:31:24.942Z,23.00
2023-05-18T14:33:53.637Z,25.80
2023-05-18T14:36:22.538Z,27.58
2023-05-18T14:38:51.222Z,27.45
2023-05-18T14:41:19.844Z,27.20
2023-05-18T14:43:48.711Z,26.83
2023-05-18T14:46:17.469Z,23.70
2023-05-18T14:48:45.749Z,23.88
2023-05-18T14:51:14.956Z,20.90
2023-05-18T14:53:43.881Z,19.38
2023-05-18T14:56:13.555Z,22.02
2023-05-18T14:58:41.738Z,17.17
2023-05-18T15:01:10.503Z,17.13
2023-05-18T15:03:39.221Z,25.50
2023-05-18T15:06:08.000Z,14.27
2023-05-18T15:08:36.884Z,29.90
2023-05-18T15:11:05.149Z,17.23
2023-05-18T15:13:33.739Z,20.77
2023-05-18T15:16:03.556Z,17.73
2023-05-18T15:18:32.435Z,19.63
2023-05-18T15:21:01.080Z,21.73
2023-05-18T15:23:29.794Z,24.40
2023-05-18T15:25:58.478Z,24.75
2023-05-18T15:28:26.848Z,23.05
2023-05-18T15:30:55.486Z,18.13
2023-05-18T15:33:24.153Z,17.38
2023-05-18T15:35:52.395Z,18.02
2023-05-18T15:38:20.525Z,17.35
2023-05-18T15:40:49.339Z,18.30
2023-05-18T15:43:17.964Z,23.65
2023-05-18T15:45:46.590Z,18.17
2023-05-18T15:48:14.867Z,12.90
2023-05-18T15:50:44.195Z,16.23
2023-05-18T15:53:12.991Z,18.75
2023-05-18T15:55:41.676Z,15.60
2023-05-18T15:58:10.279Z,16.00
2023-05-18T16:00:39.112Z,12.48
2023-05-18T16:03:07.480Z,22.70
2023-05-18T16:05:36.244Z,18.75
2023-05-18T16:08:07.892Z,14.63
2023-05-18T16:10:36.483Z,16.58
2023-05-18T16:13:06.948Z,18.50
2023-05-18T16:15:36.388Z,14.02
2023-05-18T16:18:05.090Z,15.38
2023-05-18T16:20:34.376Z,15.65
2023-05-18T16:23:02.731Z,16.65
2023-05-18T16:25:31.157Z,14.23
2023-05-18T16:27:59.097Z,14.95
2023-05-18T16:30:27.919Z,14.38
2023-05-18T16:32:56.650Z,11.80
2023-05-18T16:35:25.819Z,16.08
2023-05-18T16:37:54.539Z,12.75
2023-05-18T16:40:23.223Z,18.85
2023-05-18T16:42:52.899Z,20.52
2023-05-18T16:45:21.350Z,15.73
2023-05-18T16:47:50.070Z,12.45
2023-05-18T16:50:18.486Z,14.95
2023-05-18T16:52:46.704Z,19.67
2023-05-18T16:55:15.295Z,8.77
2023-05-18T16:57:44.881Z,18.90
2023-05-18T17:00:14.163Z,11.02
2023-05-18T17:02:43.003Z,16.08
2023-05-18T17:05:11.847Z,9.27
2023-05-18T17:07:40.358Z,13.80
2023-05-18T17:10:09.449Z,12.48
2023-05-18T17:12:39.210Z,9.88
2023-05-18T17:15:08.038Z,14.77
2023-05-18T17:17:36.730Z,13.02
2023-05-18T17:20:08.060Z,14.45
2023-05-18T17:22:37.301Z,11.63
2023-05-18T17:25:07.313Z,19.55
2023-05-18T17:27:36.049Z,12.65
2023-05-18T17:30:04.828Z,15.32
2023-05-18T17:32:33.695Z,15.45
2023-05-18T17:35:03.154Z,11.52
2023-05-18T17:37:31.329Z,8.55
2023-05-18T17:40:00.886Z,10.13
2023-05-18T17:42:29.035Z,12.68
2023-05-18T17:44:57.648Z,11.27
2023-05-18T17:47:26.399Z,15.38
2023-05-18T17:49:55.056Z,11.07
2023-05-18T17:52:23.609Z,11.13
2023-05-18T17:54:53.638Z,14.88
2023-05-18T17:57:23.705Z,15.57
2023-05-18T17:59:52.451Z,10.18
2023-05-18T18:02:21.087Z,19.88
2023-05-18T18:04:50.267Z,10.50
2023-05-18T18:07:18.950Z,15.50
2023-05-18T18:09:47.255Z,20.80
2023-05-18T18:12:16.748Z,13.40
2023-05-18T18:14:45.415Z,12.82
2023-05-18T18:17:14.165Z,12.90
2023-05-18T18:19:42.819Z,19.10
2023-05-18T18:22:11.563Z,13.82
2023-05-18T18:24:40.316Z,12.07
2023-05-18T18:27:09.110Z,11.23
2023-05-18T18:29:37.759Z,13.82
2023-05-18T18:32:06.820Z,13.32
2023-05-18T18:34:35.430Z,12.48
2023-05-18T18:37:04.143Z,16.60
2023-05-18T18:39:32.851Z,13.85
2023-05-18T18:42:01.490Z,13.77
2023-05-18T18:44:30.172Z,12.00
2023-05-18T18:46:58.190Z,13.00
2023-05-18T18:49:27.155Z,15.85
2023-05-18T18:51:55.831Z,20.23
2023-05-18T18:54:24.474Z,13.73
2023-05-18T18:56:53.269Z,11.32
2023-05-18T18:59:22.033Z,17.13
2023-05-18T19:01:50.788Z,15.43
2023-05-18T19:04:20.954Z,10.65
2023-05-18T19:06:49.160Z,21.38
2023-05-18T19:09:17.859Z,10.43
2023-05-18T19:11:46.042Z,13.23
2023-05-18T19:14:14.541Z,12.40
2023-05-18T19:16:43.161Z,14.35
2023-05-18T19:19:12.052Z,17.02
2023-05-18T19:21:40.745Z,14.23
2023-05-18T19:24:10.623Z,13.02
2023-05-18T19:26:39.224Z,9.02
2023-05-18T19:29:07.371Z,13.88
2023-05-18T19:31:36.968Z,12.63
2023-05-18T19:34:05.252Z,14.05
2023-05-18T19:36:33.987Z,16.02
2023-05-18T19:39:02.696Z,14.55
2023-05-18T19:41:31.677Z,18.67
2023-05-18T19:44:00.329Z,10.52
2023-05-18T19:46:29.064Z,15.57
2023-05-18T19:48:57.911Z,16.33
2023-05-18T19:51:26.616Z,18.50
2023-05-18T19:53:55.301Z,16.25
2023-05-18T19:56:23.985Z,14.75
2023-05-18T19:58:53.112Z,12.45
2023-05-18T20:01:25.518Z,13.48
2023-05-18T20:03:54.436Z,10.63
2023-05-18T20:06:23.216Z,16.92
2023-05-18T20:08:51.806Z,12.10
2023-05-18T20:11:20.079Z,17.38
2023-05-18T20:13:48.843Z,20.23
2023-05-18T20:16:17.154Z,15.27
2023-05-18T20:18:47.124Z,12.60
2023-05-18T20:21:15.961Z,17.27
2023-05-18T20:23:44.562Z,11.90
2023-05-18T20:26:12.834Z,16.77
2023-05-18T20:28:41.407Z,17.58
2023-05-18T20:31:10.070Z,15.43
2023-05-18T20:33:38.360Z,20.00
2023-05-18T20:36:09.966Z,12.75
2023-05-18T20:38:39.652Z,14.77
2023-05-18T20:41:08.966Z,12.60
2023-05-18T20:43:40.948Z,16.80
2023-05-18T20:46:11.178Z,13.30
2023-05-18T20:48:39.783Z,14.43
2023-05-18T20:51:16.300Z,16.25
2023-05-18T20:53:45.384Z,18.50
2023-05-18T20:56:14.224Z,16.80
2023-05-18T20:58:43.885Z,19.77
2023-05-18T21:01:12.597Z,19.42
2023-05-18T21:03:43.905Z,12.35
2023-05-18T21:06:14.608Z,13.80
2023-05-18T21:08:43.757Z,14.35
2023-05-18T21:11:12.257Z,12.48
2023-05-18T21:13:40.956Z,15.93
2023-05-18T21:16:10.847Z,9.63
2023-05-18T21:18:40.490Z,19.45
2023-05-18T21:21:09.224Z,14.02
2023-05-18T21:23:37.914Z,12.35
2023-05-18T21:26:06.754Z,13.85
2023-05-18T21:28:35.399Z,12.05
2023-05-18T21:31:04.055Z,15.48
2023-05-18T21:33:32.800Z,10.50
2023-05-18T21:36:03.018Z,9.95
2023-05-18T21:38:31.678Z,13.32
2023-05-18T21:40:59.898Z,11.98
2023-05-18T21:43:29.546Z,15.25
2023-05-18T21:45:58.290Z,10.43
2023-05-18T21:48:26.945Z,11.13
2023-05-18T21:50:55.264Z,13.15
2023-05-18T21:53:23.457Z,20.20
2023-05-18T21:55:52.422Z,10.60
2023-05-18T21:58:23.049Z,10.43
2023-05-18T22:00:52.309Z,10.05
2023-05-18T22:03:21.118Z,14.05
2023-05-18T22:05:49.943Z,10.82
2023-05-18T22:08:18.577Z,20.55
2023-05-18T22:10:47.725Z,9.30
2023-05-18T22:13:15.892Z,10.00
2023-05-18T22:15:44.629Z,17.23
2023-05-18T22:18:12.637Z,12.55
2023-05-18T22:20:41.734Z,13.38
2023-05-18T22:23:10.238Z,12.27
2023-05-18T22:25:38.785Z,17.00
2023-05-18T22:28:07.485Z,8.40
2023-05-18T22:30:36.986Z,12.57
2023-05-18T22:33:05.395Z,11.27
2023-05-18T22:35:33.866Z,15.18
2023-05-18T22:38:02.555Z,18.63
2023-05-18T22:40:31.445Z,22.75
2023-05-18T22:43:00.281Z,14.35
2023-05-18T22:45:28.501Z,10.75
2023-05-18T22:47:56.802Z,15.05
2023-05-18T22:50:25.460Z,9.77
2023-05-18T22:52:53.762Z,14.85
2023-05-18T22:55:22.408Z,11.82
2023-05-18T22:57:51.128Z,16.08
2023-05-18T23:00:20.528Z,15.73
2023-05-18T23:02:48.974Z,16.50
2023-05-18T23:05:18.219Z,9.77
2023-05-18T23:07:46.650Z,10.05
2023-05-18T23:10:15.239Z,15.10
2023-05-18T23:12:43.968Z,14.80
2023-05-18T23:15:13.073Z,10.90
2023-05-18T23:17:41.679Z,14.48
2023-05-18T23:20:12.828Z,14.93
2023-05-18T23:22:42.394Z,10.30
2023-05-18T23:25:11.103Z,21.10
2023-05-18T23:27:39.746Z,14.60
2023-05-18T23:30:08.831Z,14.68
2023-05-18T23:32:38.148Z,11.90
2023-05-18T23:35:07.237Z,12.25
2023-05-18T23:37:41.874Z,21.80
2023-05-18T23:40:15.318Z,14.90
2023-05-18T23:42:43.944Z,13.93
2023-05-18T23:45:13.158Z,15.95
2023-05-18T23:47:42.298Z,13.95
2023-05-18T23:50:11.374Z,17.25
2023-05-18T23:52:42.907Z,22.55
2023-05-18T23:55:13.210Z,17.38
2023-05-18T23:57:42.355Z,19.75
